sensor_id;sensor_type;location;lat;lon;timestamp;pressure;altitude;pressure_sealevel;temperature;humidity
43450;BME280;29041;42.266;23.110;2022-12-18T00:05:37;96409.28;;;10.41;100.00
43450;BME280;29041;42.266;23.110;2022-12-18T00:08:24;96374.75;;;10.71;100.00
43450;BME280;29041;42.266;23.110;2022-12-18T00:11:21;96406.09;;;10.85;100.00
43450;BME280;29041;42.266;23.110;2022-12-18T00:14:11;96401.59;;;9.89;100.00
43450;BME280;29041;42.266;23.110;2022-12-18T00:17:01;96427.16;;;10.91;100.00
43450;BME280;29041;42.266;23.110;2022-12-18T00:19:48;96430.47;;;10.66;100.00
43450;BME280;29041;42.266;23.110;2022-12-18T00:22:36;96433.09;;;10.79;100.00
43450;BME280;29041;42.266;23.110;2022-12-18T00:25:23;96452.75;;;10.29;100.00
43450;BME280;29041;42.266;23.110;2022-12-18T00:28:12;96452.22;;;10.78;100.00
43450;BME280;29041;42.266;23.110;2022-12-18T00:31:15;96465.09;;;10.90;100.00
43450;BME280;29041;42.266;23.110;2022-12-18T00:34:03;96447.50;;;10.84;100.00
43450;BME280;29041;42.266;23.110;2022-12-18T00:36:51;96459.47;;;11.32;100.00
43450;BME280;29041;42.266;23.110;2022-12-18T00:39:38;96458.81;;;11.26;100.00
43450;BME280;29041;42.266;23.110;2022-12-18T00:42:25;96441.44;;;11.01;100.00
43450;BME280;29041;42.266;23.110;2022-12-18T00:45:31;96472.19;;;11.17;100.00
43450;BME280;29041;42.266;23.110;2022-12-18T00:48:20;96466.41;;;10.78;100.00
43450;BME280;29041;42.266;23.110;2022-12-18T00:51:08;96484.34;;;11.15;100.00
43450;BME280;29041;42.266;23.110;2022-12-18T00:53:55;96472.41;;;10.98;100.00
43450;BME280;29041;42.266;23.110;2022-12-18T00:56:43;96450.19;;;10.84;100.00
43450;BME280;29041;42.266;23.110;2022-12-18T00:59:30;96470.09;;;11.05;98.73
43450;BME280;29041;42.266;23.110;2022-12-18T01:02:19;96452.44;;;9.94;100.00
43450;BME280;29041;42.266;23.110;2022-12-18T01:05:07;96464.75;;;10.32;100.00
43450;BME280;29041;42.266;23.110;2022-12-18T01:07:55;96453.06;;;9.63;100.00
43450;BME280;29041;42.266;23.110;2022-12-18T01:10:42;96439.03;;;9.94;100.00
43450;BME280;29041;42.266;23.110;2022-12-18T01:13:29;96454.03;;;9.40;100.00
43450;BME280;29041;42.266;23.110;2022-12-18T01:16:17;96469.00;;;10.10;100.00
43450;BME280;29041;42.266;23.110;2022-12-18T01:19:05;96469.03;;;9.68;100.00
43450;BME280;29041;42.266;23.110;2022-12-18T01:21:54;96465.66;;;9.49;100.00
43450;BME280;29041;42.266;23.110;2022-12-18T01:24:41;96461.75;;;9.27;100.00
43450;BME280;29041;42.266;23.110;2022-12-18T01:27:28;96498.22;;;10.12;100.00
43450;BME280;29041;42.266;23.110;2022-12-18T01:30:40;96496.16;;;9.67;100.00
43450;BME280;29041;42.266;23.110;2022-12-18T01:33:27;96497.31;;;9.47;100.00
43450;BME280;29041;42.266;23.110;2022-12-18T01:36:20;96505.16;;;9.29;100.00
43450;BME280;29041;42.266;23.110;2022-12-18T01:39:11;96498.56;;;9.08;100.00
43450;BME280;29041;42.266;23.110;2022-12-18T01:41:59;96497.00;;;9.34;100.00
43450;BME280;29041;42.266;23.110;2022-12-18T01:48:07;96490.63;;;9.16;100.00
43450;BME280;29041;42.266;23.110;2022-12-18T01:50:56;96515.72;;;9.07;100.00
43450;BME280;29041;42.266;23.110;2022-12-18T01:53:46;96512.63;;;9.46;100.00
43450;BME280;29041;42.266;23.110;2022-12-18T01:56:34;96503.34;;;9.25;100.00
43450;BME280;29041;42.266;23.110;2022-12-18T01:59:21;96513.94;;;8.83;100.00
43450;BME280;29041;42.266;23.110;2022-12-18T02:02:09;96504.75;;;9.36;100.00
43450;BME280;29041;42.266;23.110;2022-12-18T02:04:56;96517.31;;;9.08;100.00
43450;BME280;29041;42.266;23.110;2022-12-18T02:07:53;96514.22;;;9.47;100.00
43450;BME280;29041;42.266;23.110;2022-12-18T02:10:53;96485.53;;;9.01;100.00
43450;BME280;29041;42.266;23.110;2022-12-18T02:13:46;96511.09;;;8.93;100.00
43450;BME280;29041;42.266;23.110;2022-12-18T02:16:42;96527.09;;;8.98;100.00
43450;BME280;29041;42.266;23.110;2022-12-18T02:19:41;96508.03;;;8.67;100.00
43450;BME280;29041;42.266;23.110;2022-12-18T02:22:39;96538.75;;;8.88;100.00
43450;BME280;29041;42.266;23.110;2022-12-18T02:25:40;96530.59;;;9.13;100.00
43450;BME280;29041;42.266;23.110;2022-12-18T02:28:37;96512.75;;;8.89;100.00
43450;BME280;29041;42.266;23.110;2022-12-18T02:31:30;96540.81;;;9.11;100.00
43450;BME280;29041;42.266;23.110;2022-12-18T02:34:19;96526.16;;;8.89;100.00
43450;BME280;29041;42.266;23.110;2022-12-18T02:37:14;96531.09;;;8.63;100.00
43450;BME280;29041;42.266;23.110;2022-12-18T02:40:04;96518.75;;;9.00;100.00
43450;BME280;29041;42.266;23.110;2022-12-18T02:42:55;96542.88;;;8.62;100.00
43450;BME280;29041;42.266;23.110;2022-12-18T02:45:54;96561.16;;;9.45;99.05
43450;BME280;29041;42.266;23.110;2022-12-18T02:48:42;96557.84;;;8.82;99.58
43450;BME280;29041;42.266;23.110;2022-12-18T02:51:34;96558.84;;;9.05;100.00
43450;BME280;29041;42.266;23.110;2022-12-18T02:54:35;96563.94;;;8.25;100.00
43450;BME280;29041;42.266;23.110;2022-12-18T02:57:30;96501.56;;;8.30;100.00
43450;BME280;29041;42.266;23.110;2022-12-18T03:00:23;96556.56;;;8.17;100.00
43450;BME280;29041;42.266;23.110;2022-12-18T03:03:16;96530.28;;;8.00;100.00
43450;BME280;29041;42.266;23.110;2022-12-18T03:06:08;96573.84;;;8.24;100.00
43450;BME280;29041;42.266;23.110;2022-12-18T03:09:00;96551.84;;;8.08;100.00
43450;BME280;29041;42.266;23.110;2022-12-18T03:11:54;96569.53;;;8.04;100.00
43450;BME280;29041;42.266;23.110;2022-12-18T03:15:06;96566.53;;;7.87;100.00
43450;BME280;29041;42.266;23.110;2022-12-18T03:17:59;96525.13;;;7.84;100.00
43450;BME280;29041;42.266;23.110;2022-12-18T03:20:50;96557.97;;;7.85;100.00
43450;BME280;29041;42.266;23.110;2022-12-18T03:23:40;96578.19;;;8.20;100.00
43450;BME280;29041;42.266;23.110;2022-12-18T03:26:28;96595.00;;;8.21;100.00
43450;BME280;29041;42.266;23.110;2022-12-18T03:29:19;96581.13;;;8.43;100.00
43450;BME280;29041;42.266;23.110;2022-12-18T03:32:11;96596.94;;;8.39;100.00
43450;BME280;29041;42.266;23.110;2022-12-18T03:35:03;96605.31;;;8.33;100.00
43450;BME280;29041;42.266;23.110;2022-12-18T03:37:52;96584.91;;;8.18;100.00
43450;BME280;29041;42.266;23.110;2022-12-18T03:40:48;96594.59;;;8.33;100.00
43450;BME280;29041;42.266;23.110;2022-12-18T03:43:44;96621.81;;;8.40;99.42
43450;BME280;29041;42.266;23.110;2022-12-18T03:46:40;96574.13;;;7.74;100.00
43450;BME280;29041;42.266;23.110;2022-12-18T03:49:34;96622.56;;;8.21;99.14
43450;BME280;29041;42.266;23.110;2022-12-18T03:52:26;96636.06;;;8.11;100.00
43450;BME280;29041;42.266;23.110;2022-12-18T03:55:17;96590.00;;;7.90;100.00
43450;BME280;29041;42.266;23.110;2022-12-18T03:58:06;96637.13;;;8.34;99.77
43450;BME280;29041;42.266;23.110;2022-12-18T04:00:58;96630.75;;;8.30;98.72
43450;BME280;29041;42.266;23.110;2022-12-18T04:03:49;96636.81;;;8.17;98.14
43450;BME280;29041;42.266;23.110;2022-12-18T04:06:37;96616.72;;;7.95;98.16
43450;BME280;29041;42.266;23.110;2022-12-18T04:09:25;96650.69;;;8.43;98.04
43450;BME280;29041;42.266;23.110;2022-12-18T04:12:16;96668.44;;;8.09;97.61
43450;BME280;29041;42.266;23.110;2022-12-18T04:15:06;96661.72;;;8.12;97.90
43450;BME280;29041;42.266;23.110;2022-12-18T04:17:54;96655.44;;;8.46;97.04
43450;BME280;29041;42.266;23.110;2022-12-18T04:20:46;96682.50;;;8.45;97.74
43450;BME280;29041;42.266;23.110;2022-12-18T04:23:34;96673.47;;;8.40;96.20
43450;BME280;29041;42.266;23.110;2022-12-18T04:26:22;96681.03;;;8.33;96.52
43450;BME280;29041;42.266;23.110;2022-12-18T04:29:12;96679.09;;;8.39;95.75
43450;BME280;29041;42.266;23.110;2022-12-18T04:31:59;96692.84;;;8.56;95.88
43450;BME280;29041;42.266;23.110;2022-12-18T04:34:47;96714.75;;;8.05;96.51
43450;BME280;29041;42.266;23.110;2022-12-18T04:37:34;96704.50;;;8.12;95.96
43450;BME280;29041;42.266;23.110;2022-12-18T04:40:22;96691.59;;;8.44;93.68
43450;BME280;29041;42.266;23.110;2022-12-18T04:43:09;96702.63;;;8.13;96.33
43450;BME280;29041;42.266;23.110;2022-12-18T04:46:05;96675.44;;;7.76;96.58
43450;BME280;29041;42.266;23.110;2022-12-18T04:48:52;96687.06;;;7.90;97.04
43450;BME280;29041;42.266;23.110;2022-12-18T04:51:40;96735.50;;;7.84;97.45
43450;BME280;29041;42.266;23.110;2022-12-18T04:54:27;96700.09;;;7.68;97.41
43450;BME280;29041;42.266;23.110;2022-12-18T04:57:14;96745.63;;;8.21;95.51
43450;BME280;29041;42.266;23.110;2022-12-18T05:00:04;96732.44;;;8.30;94.12
43450;BME280;29041;42.266;23.110;2022-12-18T05:02:54;96747.56;;;8.69;94.43
43450;BME280;29041;42.266;23.110;2022-12-18T05:05:41;96754.22;;;8.48;94.27
43450;BME280;29041;42.266;23.110;2022-12-18T05:08:30;96733.16;;;8.65;92.83
43450;BME280;29041;42.266;23.110;2022-12-18T05:11:17;96761.13;;;8.54;93.86
43450;BME280;29041;42.266;23.110;2022-12-18T05:14:05;96759.03;;;8.46;95.28
43450;BME280;29041;42.266;23.110;2022-12-18T05:16:52;96769.44;;;7.88;96.45
43450;BME280;29041;42.266;23.110;2022-12-18T05:19:41;96768.50;;;8.33;94.28
43450;BME280;29041;42.266;23.110;2022-12-18T05:22:30;96763.19;;;7.98;96.17
43450;BME280;29041;42.266;23.110;2022-12-18T05:25:18;96757.72;;;7.84;95.45
43450;BME280;29041;42.266;23.110;2022-12-18T05:28:06;96719.09;;;7.66;95.59
43450;BME280;29041;42.266;23.110;2022-12-18T05:31:00;96775.72;;;7.68;95.73
43450;BME280;29041;42.266;23.110;2022-12-18T05:33:47;96768.41;;;8.19;94.17
43450;BME280;29041;42.266;23.110;2022-12-18T05:36:36;96717.34;;;7.46;95.17
43450;BME280;29041;42.266;23.110;2022-12-18T05:39:24;96776.91;;;8.21;95.15
43450;BME280;29041;42.266;23.110;2022-12-18T05:42:11;96756.44;;;8.35;92.98
43450;BME280;29041;42.266;23.110;2022-12-18T05:44:58;96769.22;;;7.40;97.70
43450;BME280;29041;42.266;23.110;2022-12-18T05:47:46;96755.81;;;7.85;95.21
43450;BME280;29041;42.266;23.110;2022-12-18T05:50:34;96786.13;;;8.09;95.03
43450;BME280;29041;42.266;23.110;2022-12-18T05:53:23;96764.63;;;8.20;93.95
43450;BME280;29041;42.266;23.110;2022-12-18T05:56:12;96795.44;;;8.12;93.30
43450;BME280;29041;42.266;23.110;2022-12-18T05:59:00;96777.78;;;7.82;95.68
43450;BME280;29041;42.266;23.110;2022-12-18T06:02:02;96808.56;;;7.29;98.36
43450;BME280;29041;42.266;23.110;2022-12-18T06:04:51;96811.63;;;7.57;97.22
43450;BME280;29041;42.266;23.110;2022-12-18T06:07:41;96802.44;;;7.68;95.87
43450;BME280;29041;42.266;23.110;2022-12-18T06:10:30;96793.44;;;7.59;95.59
43450;BME280;29041;42.266;23.110;2022-12-18T06:13:18;96797.09;;;7.23;97.60
43450;BME280;29041;42.266;23.110;2022-12-18T06:16:06;96822.00;;;7.03;99.26
43450;BME280;29041;42.266;23.110;2022-12-18T06:18:53;96810.25;;;7.04;99.47
43450;BME280;29041;42.266;23.110;2022-12-18T06:21:42;96835.31;;;7.13;98.19
43450;BME280;29041;42.266;23.110;2022-12-18T06:24:29;96822.94;;;7.33;96.73
43450;BME280;29041;42.266;23.110;2022-12-18T06:27:18;96845.75;;;7.70;94.65
43450;BME280;29041;42.266;23.110;2022-12-18T06:30:07;96812.38;;;7.12;95.95
43450;BME280;29041;42.266;23.110;2022-12-18T06:32:54;96832.19;;;6.86;97.80
43450;BME280;29041;42.266;23.110;2022-12-18T06:35:42;96795.09;;;6.84;98.04
43450;BME280;29041;42.266;23.110;2022-12-18T06:38:30;96785.19;;;6.95;96.23
43450;BME280;29041;42.266;23.110;2022-12-18T06:41:19;96838.84;;;6.93;98.05
43450;BME280;29041;42.266;23.110;2022-12-18T06:44:11;96823.38;;;6.90;96.19
43450;BME280;29041;42.266;23.110;2022-12-18T06:47:06;96826.91;;;6.75;95.73
43450;BME280;29041;42.266;23.110;2022-12-18T06:49:53;96827.38;;;6.88;96.56
43450;BME280;29041;42.266;23.110;2022-12-18T06:53:15;96863.38;;;7.11;96.27
43450;BME280;29041;42.266;23.110;2022-12-18T06:56:03;96839.66;;;6.89;97.81
43450;BME280;29041;42.266;23.110;2022-12-18T06:58:51;96867.56;;;7.33;95.84
43450;BME280;29041;42.266;23.110;2022-12-18T07:01:44;96847.88;;;7.08;96.17
43450;BME280;29041;42.266;23.110;2022-12-18T07:04:32;96882.59;;;7.13;95.79
43450;BME280;29041;42.266;23.110;2022-12-18T07:07:19;96871.19;;;6.81;97.53
43450;BME280;29041;42.266;23.110;2022-12-18T07:10:06;96874.63;;;6.82;97.24
43450;BME280;29041;42.266;23.110;2022-12-18T07:12:54;96879.97;;;7.03;97.04
43450;BME280;29041;42.266;23.110;2022-12-18T07:15:42;96897.81;;;7.12;96.87
43450;BME280;29041;42.266;23.110;2022-12-18T07:18:31;96853.53;;;6.86;95.87
43450;BME280;29041;42.266;23.110;2022-12-18T07:21:19;96904.50;;;7.10;96.54
43450;BME280;29041;42.266;23.110;2022-12-18T07:24:07;96905.31;;;7.05;95.02
43450;BME280;29041;42.266;23.110;2022-12-18T07:26:54;96918.59;;;7.26;93.93
43450;BME280;29041;42.266;23.110;2022-12-18T07:29:42;96902.81;;;7.35;93.86
43450;BME280;29041;42.266;23.110;2022-12-18T07:32:30;96915.47;;;6.93;94.36
43450;BME280;29041;42.266;23.110;2022-12-18T07:35:19;96917.56;;;7.17;94.30
43450;BME280;29041;42.266;23.110;2022-12-18T07:38:06;96894.16;;;6.51;95.51
43450;BME280;29041;42.266;23.110;2022-12-18T07:40:54;96926.13;;;7.08;94.09
43450;BME280;29041;42.266;23.110;2022-12-18T07:43:41;96951.22;;;7.02;95.06
43450;BME280;29041;42.266;23.110;2022-12-18T07:46:29;96958.91;;;7.40;95.31
43450;BME280;29041;42.266;23.110;2022-12-18T07:49:17;96933.13;;;6.83;95.42
43450;BME280;29041;42.266;23.110;2022-12-18T07:52:05;96943.47;;;7.21;94.15
43450;BME280;29041;42.266;23.110;2022-12-18T07:54:52;96941.06;;;7.20;93.31
43450;BME280;29041;42.266;23.110;2022-12-18T07:57:40;96977.03;;;7.53;92.58
43450;BME280;29041;42.266;23.110;2022-12-18T08:00:27;96928.03;;;6.92;93.85
43450;BME280;29041;42.266;23.110;2022-12-18T08:03:15;96929.38;;;6.48;95.40
43450;BME280;29041;42.266;23.110;2022-12-18T08:06:03;96981.13;;;6.78;96.05
43450;BME280;29041;42.266;23.110;2022-12-18T08:08:54;96945.09;;;7.17;93.38
43450;BME280;29041;42.266;23.110;2022-12-18T08:11:45;96960.94;;;7.74;91.39
43450;BME280;29041;42.266;23.110;2022-12-18T08:14:34;96983.53;;;8.02;88.52
43450;BME280;29041;42.266;23.110;2022-12-18T08:17:22;96933.66;;;6.75;91.48
43450;BME280;29041;42.266;23.110;2022-12-18T08:20:10;96977.31;;;7.52;91.16
43450;BME280;29041;42.266;23.110;2022-12-18T08:22:57;96938.41;;;7.20;90.05
43450;BME280;29041;42.266;23.110;2022-12-18T08:25:46;97007.75;;;7.66;90.33
43450;BME280;29041;42.266;23.110;2022-12-18T08:28:33;96994.34;;;7.82;88.83
43450;BME280;29041;42.266;23.110;2022-12-18T08:31:21;97001.94;;;7.23;90.50
43450;BME280;29041;42.266;23.110;2022-12-18T08:34:09;96965.50;;;7.63;88.29
43450;BME280;29041;42.266;23.110;2022-12-18T08:36:56;96955.22;;;7.15;88.56
43450;BME280;29041;42.266;23.110;2022-12-18T08:39:43;96984.38;;;6.91;89.48
43450;BME280;29041;42.266;23.110;2022-12-18T08:47:48;96975.41;;;7.62;86.66
43450;BME280;29041;42.266;23.110;2022-12-18T08:50:54;96986.91;;;7.58;87.18
43450;BME280;29041;42.266;23.110;2022-12-18T08:53:42;96987.84;;;7.93;86.23
43450;BME280;29041;42.266;23.110;2022-12-18T08:56:30;97022.16;;;8.31;85.09
43450;BME280;29041;42.266;23.110;2022-12-18T08:59:18;97007.59;;;8.07;85.20
43450;BME280;29041;42.266;23.110;2022-12-18T09:02:05;97013.16;;;8.16;85.08
43450;BME280;29041;42.266;23.110;2022-12-18T09:04:54;97014.84;;;7.97;84.61
43450;BME280;29041;42.266;23.110;2022-12-18T09:07:41;97021.75;;;8.13;84.27
43450;BME280;29041;42.266;23.110;2022-12-18T09:10:29;97018.47;;;8.26;83.03
43450;BME280;29041;42.266;23.110;2022-12-18T09:13:17;97019.78;;;8.29;83.84
43450;BME280;29041;42.266;23.110;2022-12-18T09:16:05;97006.34;;;7.79;84.89
43450;BME280;29041;42.266;23.110;2022-12-18T09:18:52;97008.22;;;7.89;84.02
43450;BME280;29041;42.266;23.110;2022-12-18T09:21:46;97009.09;;;7.58;85.93
43450;BME280;29041;42.266;23.110;2022-12-18T09:24:35;97007.88;;;8.01;84.06
43450;BME280;29041;42.266;23.110;2022-12-18T09:27:22;96992.81;;;7.55;86.77
43450;BME280;29041;42.266;23.110;2022-12-18T09:30:10;96986.94;;;8.18;85.33
43450;BME280;29041;42.266;23.110;2022-12-18T09:32:57;96995.38;;;7.86;84.63
43450;BME280;29041;42.266;23.110;2022-12-18T09:35:45;97006.53;;;8.53;83.32
43450;BME280;29041;42.266;23.110;2022-12-18T09:38:34;96999.44;;;8.28;84.58
43450;BME280;29041;42.266;23.110;2022-12-18T09:41:39;97001.69;;;8.05;83.67
43450;BME280;29041;42.266;23.110;2022-12-18T09:44:28;96994.13;;;8.23;84.09
43450;BME280;29041;42.266;23.110;2022-12-18T09:47:19;96995.13;;;8.37;83.68
43450;BME280;29041;42.266;23.110;2022-12-18T09:50:23;97003.69;;;8.39;85.41
43450;BME280;29041;42.266;23.110;2022-12-18T09:53:15;97004.44;;;7.95;86.54
43450;BME280;29041;42.266;23.110;2022-12-18T09:56:10;96983.91;;;8.30;85.17
43450;BME280;29041;42.266;23.110;2022-12-18T09:59:00;97002.22;;;8.07;86.60
43450;BME280;29041;42.266;23.110;2022-12-18T10:01:48;96977.72;;;8.40;87.30
43450;BME280;29041;42.266;23.110;2022-12-18T10:04:35;96984.66;;;9.15;84.75
43450;BME280;29041;42.266;23.110;2022-12-18T10:07:28;96998.63;;;8.78;83.51
43450;BME280;29041;42.266;23.110;2022-12-18T10:10:27;96984.34;;;8.53;84.62
43450;BME280;29041;42.266;23.110;2022-12-18T10:13:23;96985.00;;;8.74;84.68
43450;BME280;29041;42.266;23.110;2022-12-18T10:16:16;96994.84;;;9.43;83.24
43450;BME280;29041;42.266;23.110;2022-12-18T10:19:20;96983.06;;;9.14;82.33
43450;BME280;29041;42.266;23.110;2022-12-18T10:22:19;96964.53;;;8.88;83.99
43450;BME280;29041;42.266;23.110;2022-12-18T10:25:18;96993.34;;;8.67;84.62
43450;BME280;29041;42.266;23.110;2022-12-18T10:28:10;96968.41;;;8.27;85.84
43450;BME280;29041;42.266;23.110;2022-12-18T10:31:00;96969.78;;;8.69;84.05
43450;BME280;29041;42.266;23.110;2022-12-18T10:33:47;96964.03;;;8.41;84.57
43450;BME280;29041;42.266;23.110;2022-12-18T10:36:35;96974.19;;;8.84;83.53
43450;BME280;29041;42.266;23.110;2022-12-18T10:39:23;96957.69;;;8.32;85.16
43450;BME280;29041;42.266;23.110;2022-12-18T10:42:16;96968.81;;;8.55;85.32
43450;BME280;29041;42.266;23.110;2022-12-18T10:45:09;96977.56;;;8.66;84.31
43450;BME280;29041;42.266;23.110;2022-12-18T10:47:58;96979.03;;;8.42;83.41
43450;BME280;29041;42.266;23.110;2022-12-18T10:50:48;96941.69;;;8.22;83.66
43450;BME280;29041;42.266;23.110;2022-12-18T10:53:39;96961.56;;;8.55;82.82
43450;BME280;29041;42.266;23.110;2022-12-18T10:56:30;96972.69;;;8.28;83.91
43450;BME280;29041;42.266;23.110;2022-12-18T10:59:18;96952.13;;;8.68;83.68
43450;BME280;29041;42.266;23.110;2022-12-18T11:02:27;96967.44;;;8.13;85.52
43450;BME280;29041;42.266;23.110;2022-12-18T11:05:28;96960.59;;;7.91;86.59
43450;BME280;29041;42.266;23.110;2022-12-18T11:08:20;96965.56;;;8.08;86.39
43450;BME280;29041;42.266;23.110;2022-12-18T11:11:19;96946.69;;;7.94;85.58
43450;BME280;29041;42.266;23.110;2022-12-18T11:14:17;96963.78;;;8.38;84.74
43450;BME280;29041;42.266;23.110;2022-12-18T11:17:19;96963.13;;;8.67;84.03
43450;BME280;29041;42.266;23.110;2022-12-18T11:20:22;96970.09;;;8.63;84.44
43450;BME280;29041;42.266;23.110;2022-12-18T11:23:12;96962.22;;;8.37;83.87
43450;BME280;29041;42.266;23.110;2022-12-18T11:26:02;96964.91;;;8.77;81.78
43450;BME280;29041;42.266;23.110;2022-12-18T11:28:52;96980.50;;;8.64;82.95
43450;BME280;29041;42.266;23.110;2022-12-18T11:31:39;96985.97;;;8.88;81.99
43450;BME280;29041;42.266;23.110;2022-12-18T11:34:28;96981.44;;;8.49;82.85
43450;BME280;29041;42.266;23.110;2022-12-18T11:37:17;96968.94;;;8.29;82.99
43450;BME280;29041;42.266;23.110;2022-12-18T11:40:12;96986.75;;;8.54;82.42
43450;BME280;29041;42.266;23.110;2022-12-18T11:43:06;96987.56;;;8.50;81.88
43450;BME280;29041;42.266;23.110;2022-12-18T11:45:59;96987.66;;;8.29;84.49
43450;BME280;29041;42.266;23.110;2022-12-18T11:48:53;96981.97;;;8.86;81.25
43450;BME280;29041;42.266;23.110;2022-12-18T11:51:48;96980.56;;;8.94;80.46
43450;BME280;29041;42.266;23.110;2022-12-18T11:54:37;96986.06;;;9.08;80.42
43450;BME280;29041;42.266;23.110;2022-12-18T11:57:31;96985.63;;;8.61;80.06
43450;BME280;29041;42.266;23.110;2022-12-18T12:00:22;96992.22;;;8.73;79.81
43450;BME280;29041;42.266;23.110;2022-12-18T12:03:27;96982.41;;;8.64;81.27
43450;BME280;29041;42.266;23.110;2022-12-18T12:06:21;96992.81;;;8.65;80.38
43450;BME280;29041;42.266;23.110;2022-12-18T12:09:18;96996.66;;;8.54;80.85
43450;BME280;29041;42.266;23.110;2022-12-18T12:12:20;96996.44;;;8.40;81.77
43450;BME280;29041;42.266;23.110;2022-12-18T12:15:20;96990.50;;;8.03;83.59
43450;BME280;29041;42.266;23.110;2022-12-18T12:18:20;96984.94;;;8.34;83.19
43450;BME280;29041;42.266;23.110;2022-12-18T12:21:16;96957.72;;;8.27;82.87
43450;BME280;29041;42.266;23.110;2022-12-18T12:24:28;96996.03;;;8.17;84.90
43450;BME280;29041;42.266;23.110;2022-12-18T12:27:25;96992.25;;;8.23;84.86
43450;BME280;29041;42.266;23.110;2022-12-18T12:30:21;96997.44;;;8.54;84.04
43450;BME280;29041;42.266;23.110;2022-12-18T12:33:18;96993.56;;;8.31;83.81
43450;BME280;29041;42.266;23.110;2022-12-18T12:36:16;97004.50;;;8.35;83.15
43450;BME280;29041;42.266;23.110;2022-12-18T12:39:10;97007.78;;;8.21;83.97
43450;BME280;29041;42.266;23.110;2022-12-18T12:41:59;97004.44;;;7.90;83.35
43450;BME280;29041;42.266;23.110;2022-12-18T12:45:06;96943.63;;;7.56;83.76
43450;BME280;29041;42.266;23.110;2022-12-18T12:47:56;96976.47;;;7.67;83.93
43450;BME280;29041;42.266;23.110;2022-12-18T12:50:45;97007.00;;;8.16;83.65
43450;BME280;29041;42.266;23.110;2022-12-18T12:53:36;97015.84;;;8.11;82.74
43450;BME280;29041;42.266;23.110;2022-12-18T12:56:26;97025.81;;;8.00;82.46
43450;BME280;29041;42.266;23.110;2022-12-18T12:59:22;97016.72;;;7.91;82.22
43450;BME280;29041;42.266;23.110;2022-12-18T13:02:21;97024.00;;;7.85;82.04
43450;BME280;29041;42.266;23.110;2022-12-18T13:05:18;97027.44;;;7.91;82.28
43450;BME280;29041;42.266;23.110;2022-12-18T13:08:10;97034.88;;;7.99;81.26
43450;BME280;29041;42.266;23.110;2022-12-18T13:11:00;97048.09;;;7.59;81.76
43450;BME280;29041;42.266;23.110;2022-12-18T13:14:01;97045.47;;;7.44;82.41
43450;BME280;29041;42.266;23.110;2022-12-18T13:16:49;97017.38;;;7.57;80.82
43450;BME280;29041;42.266;23.110;2022-12-18T13:19:36;97019.28;;;7.46;81.03
43450;BME280;29041;42.266;23.110;2022-12-18T13:22:29;97014.91;;;7.81;80.06
43450;BME280;29041;42.266;23.110;2022-12-18T13:25:34;97013.63;;;7.63;81.44
43450;BME280;29041;42.266;23.110;2022-12-18T13:28:23;97052.03;;;7.93;79.85
43450;BME280;29041;42.266;23.110;2022-12-18T13:31:12;97048.91;;;7.55;81.59
43450;BME280;29041;42.266;23.110;2022-12-18T13:34:15;97041.97;;;7.54;81.67
43450;BME280;29041;42.266;23.110;2022-12-18T13:37:43;97060.41;;;7.60;79.74
43450;BME280;29041;42.266;23.110;2022-12-18T13:40:53;97035.03;;;7.53;78.88
43450;BME280;29041;42.266;23.110;2022-12-18T13:43:43;97066.03;;;7.59;76.47
43450;BME280;29041;42.266;23.110;2022-12-18T13:46:42;97065.19;;;7.74;75.80
43450;BME280;29041;42.266;23.110;2022-12-18T13:49:36;97062.31;;;7.13;77.25
43450;BME280;29041;42.266;23.110;2022-12-18T13:52:26;97063.31;;;7.80;75.32
43450;BME280;29041;42.266;23.110;2022-12-18T13:55:19;97039.84;;;7.56;74.97
43450;BME280;29041;42.266;23.110;2022-12-18T13:58:09;97059.66;;;7.19;75.16
43450;BME280;29041;42.266;23.110;2022-12-18T14:00:58;97046.81;;;6.95;76.53
43450;BME280;29041;42.266;23.110;2022-12-18T14:03:47;97065.78;;;7.29;76.26
43450;BME280;29041;42.266;23.110;2022-12-18T14:06:34;97052.44;;;6.88;76.88
43450;BME280;29041;42.266;23.110;2022-12-18T14:09:25;97070.06;;;7.25;76.16
43450;BME280;29041;42.266;23.110;2022-12-18T14:12:18;97050.00;;;6.87;77.48
43450;BME280;29041;42.266;23.110;2022-12-18T14:15:29;97058.06;;;7.07;77.44
43450;BME280;29041;42.266;23.110;2022-12-18T14:18:21;97043.63;;;6.98;77.68
43450;BME280;29041;42.266;23.110;2022-12-18T14:21:39;97078.06;;;6.94;79.09
43450;BME280;29041;42.266;23.110;2022-12-18T14:24:27;97047.38;;;6.97;78.46
43450;BME280;29041;42.266;23.110;2022-12-18T14:27:24;97094.56;;;6.71;80.24
43450;BME280;29041;42.266;23.110;2022-12-18T14:30:27;97096.47;;;6.96;79.04
43450;BME280;29041;42.266;23.110;2022-12-18T14:33:17;97101.31;;;7.04;78.93
43450;BME280;29041;42.266;23.110;2022-12-18T14:36:05;97090.63;;;7.04;79.24
43450;BME280;29041;42.266;23.110;2022-12-18T14:38:54;97099.16;;;6.91;79.68
43450;BME280;29041;42.266;23.110;2022-12-18T14:41:43;97081.00;;;7.19;77.49
43450;BME280;29041;42.266;23.110;2022-12-18T14:44:32;97073.00;;;7.03;78.08
43450;BME280;29041;42.266;23.110;2022-12-18T14:47:20;97089.81;;;6.93;77.66
43450;BME280;29041;42.266;23.110;2022-12-18T14:50:12;97100.16;;;6.64;80.48
43450;BME280;29041;42.266;23.110;2022-12-18T14:53:00;97102.06;;;6.74;80.27
43450;BME280;29041;42.266;23.110;2022-12-18T14:55:48;97104.66;;;6.48;79.52
43450;BME280;29041;42.266;23.110;2022-12-18T14:58:35;97083.41;;;6.05;82.16
43450;BME280;29041;42.266;23.110;2022-12-18T15:01:29;97064.13;;;5.87;81.19
43450;BME280;29041;42.266;23.110;2022-12-18T15:04:26;97100.59;;;6.35;83.69
43450;BME280;29041;42.266;23.110;2022-12-18T15:07:17;97091.47;;;6.15;82.28
43450;BME280;29041;42.266;23.110;2022-12-18T15:10:12;97106.34;;;6.01;83.16
43450;BME280;29041;42.266;23.110;2022-12-18T15:13:09;97098.34;;;6.01;83.57
43450;BME280;29041;42.266;23.110;2022-12-18T15:15:57;97095.78;;;5.79;83.59
43450;BME280;29041;42.266;23.110;2022-12-18T15:18:51;97069.03;;;6.06;83.10